Time;durP1;ratioP1;P1;durP2;ratioP2;P2;SDS_P1;SDS_P2;PMS_P1;PMS_P2;Temp;Humidity;BMP_temperature;BMP_pressure;BME280_temperature;BME280_humidity;BME280_pressure;Samples;Min_cycle;Max_cycle;Signal;HPM_P1;HPM_P2
2022/06/29 00:00:34;;;;;;;30.33;27.40;;;;;;;19.95;nan;99412.28;2099221;28;20466;-72
2022/06/29 00:01:35;;;;;;;31.30;28.07;;;;;;;19.96;nan;99410.38;2091761;28;20220;-72
2022/06/29 00:02:37;;;;;;;30.23;27.27;;;;;;;19.97;nan;99415.44;2091110;28;20476;-72
2022/06/29 00:03:41;;;;;;;30.00;27.07;;;;;;;19.99;nan;99412.41;2090886;28;20223;-71
2022/06/29 00:04:42;;;;;;;29.93;27.13;;;;;;;19.99;nan;99415.09;2098632;28;20424;-71
2022/06/29 00:05:44;;;;;;;29.57;26.93;;;;;;;19.97;nan;99412.72;2091608;28;20927;-71
2022/06/29 00:06:45;;;;;;;31.20;28.20;;;;;;;19.99;nan;99417.81;2099051;28;20687;-72
2022/06/29 00:07:47;;;;;;;32.43;29.13;;;;;;;20.00;nan;99413.97;2099178;28;20813;-71
2022/06/29 00:08:47;;;;;;;32.33;29.43;;;;;;;20.01;nan;99404.69;2091437;28;20191;-71
2022/06/29 00:09:49;;;;;;;31.37;28.57;;;;;;;20.02;nan;99407.06;2091576;28;20437;-71
2022/06/29 00:10:52;;;;;;;32.03;28.67;;;;;;;20.03;nan;99405.13;2091463;28;20222;-71
2022/06/29 00:11:54;;;;;;;32.27;29.07;;;;;;;20.03;nan;99399.72;2091591;28;20759;-71
2022/06/29 00:12:56;;;;;;;30.23;27.77;;;;;;;20.02;nan;99401.63;2091518;28;20425;-72
2022/06/29 00:13:57;;;;;;;32.70;29.60;;;;;;;20.02;nan;99395.44;2091543;28;20429;-72
2022/06/29 00:15:02;;;;;;;31.67;28.67;;;;;;;20.04;nan;99388.53;2091554;28;20900;-71
2022/06/29 00:16:03;;;;;;;31.97;28.73;;;;;;;20.05;nan;99384.66;2099296;28;20558;-71
2022/06/29 00:17:04;;;;;;;31.80;28.83;;;;;;;20.05;nan;99383.88;2091077;28;20583;-72
2022/06/29 00:18:07;;;;;;;30.53;27.63;;;;;;;20.06;nan;99385.47;2082776;28;20215;-71
2022/06/29 00:19:08;;;;;;;31.47;28.27;;;;;;;20.05;nan;99383.88;2090918;28;20421;-72
2022/06/29 00:20:12;;;;;;;30.57;27.47;;;;;;;20.02;nan;99382.69;2091378;28;20433;-71
2022/06/29 00:21:13;;;;;;;30.70;27.53;;;;;;;20.01;nan;99383.81;2098520;28;20451;-71
2022/06/29 00:22:16;;;;;;;29.37;26.77;;;;;;;20.00;nan;99387.66;2098785;28;20441;-72
2022/06/29 00:23:17;;;;;;;29.77;27.07;;;;;;;19.99;nan;99386.09;2099242;28;20444;-71
2022/06/29 00:24:18;;;;;;;30.03;27.07;;;;;;;19.99;nan;99385.31;2099086;28;21002;-72
2022/06/29 00:25:21;;;;;;;28.63;26.03;;;;;;;20.00;nan;99386.88;2091326;28;20820;-72
2022/06/29 00:26:23;;;;;;;27.93;25.40;;;;;;;20.00;nan;99392.28;2091383;28;20198;-71
2022/06/29 00:27:28;;;;;;;28.53;25.87;;;;;;;20.00;nan;99386.88;2098957;28;20440;-72
2022/06/29 00:28:30;;;;;;;28.57;25.93;;;;;;;20.00;nan;99386.88;2098600;28;20832;-71
2022/06/29 00:29:31;;;;;;;29.67;26.77;;;;;;;19.99;nan;99380.69;2091554;28;20439;-72
2022/06/29 00:30:32;;;;;;;30.23;27.30;;;;;;;19.98;nan;99383.72;2098552;28;20539;-72
2022/06/29 00:31:35;;;;;;;29.37;26.87;;;;;;;19.97;nan;99372.09;2098929;28;20194;-71
2022/06/29 00:32:37;;;;;;;28.57;26.13;;;;;;;19.97;nan;99379.44;2091330;28;20479;-72
2022/06/29 00:33:38;;;;;;;29.93;27.23;;;;;;;19.98;nan;99378.28;2098876;28;20453;-71
2022/06/29 00:34:40;;;;;;;29.20;26.50;;;;;;;19.98;nan;99381.81;2098957;28;20444;-72
2022/06/29 00:35:42;;;;;;;29.93;27.07;;;;;;;19.98;nan;99376.41;2090622;28;20195;-72
2022/06/29 00:36:43;;;;;;;30.90;27.63;;;;;;;19.96;nan;99378.66;2090519;28;20496;-71
2022/06/29 00:37:45;;;;;;;30.30;27.43;;;;;;;19.97;nan;99387.56;2082119;28;20469;-72
2022/06/29 00:38:45;;;;;;;28.70;26.23;;;;;;;19.97;nan;99382.13;2090916;28;20175;-71
2022/06/29 00:39:49;;;;;;;28.50;26.00;;;;;;;19.97;nan;99387.56;2091215;28;20524;-72
2022/06/29 00:40:50;;;;;;;29.77;27.27;;;;;;;19.95;nan;99368.16;2091142;28;20290;-72
2022/06/29 00:41:55;;;;;;;30.60;27.50;;;;;;;19.95;nan;99376.28;2091276;28;20425;-71
2022/06/29 00:42:56;;;;;;;29.37;26.67;;;;;;;19.94;nan;99374.72;2098808;28;20279;-72
2022/06/29 00:43:57;;;;;;;29.37;26.83;;;;;;;19.94;nan;99366.59;2090530;28;20481;-72
2022/06/29 00:44:59;;;;;;;29.50;26.73;;;;;;;19.93;nan;99360.41;2090555;28;20440;-71
2022/06/29 00:45:59;;;;;;;29.43;26.77;;;;;;;19.94;nan;99372.81;2091376;28;20218;-72
2022/06/29 00:47:04;;;;;;;29.83;27.03;;;;;;;19.90;nan;99369.25;2091200;28;20440;-72
2022/06/29 00:48:09;;;;;;;29.57;27.07;;;;;;;19.91;nan;99367.31;2091342;28;20309;-71
2022/06/29 00:49:10;;;;;;;29.20;26.60;;;;;;;19.92;nan;99363.47;2091189;28;20430;-72
2022/06/29 00:50:12;;;;;;;29.87;26.97;;;;;;;19.95;nan;99362.75;2091273;28;20453;-72
2022/06/29 00:51:16;;;;;;;31.67;28.50;;;;;;;19.96;nan;99353.50;2098516;28;20852;-72
2022/06/29 00:52:18;;;;;;;31.00;28.40;;;;;;;19.93;nan;99360.41;2098570;28;20401;-72
2022/06/29 00:53:20;;;;;;;30.93;28.03;;;;;;;19.92;nan;99364.25;2098712;28;20504;-72
2022/06/29 00:54:24;;;;;;;32.60;29.20;;;;;;;19.91;nan;99362.69;2098852;28;20479;-72
2022/06/29 00:55:28;;;;;;;30.30;27.60;;;;;;;19.91;nan;99359.97;2098729;28;20444;-71
2022/06/29 00:56:32;;;;;;;30.50;27.57;;;;;;;19.90;nan;99361.13;2098522;28;20435;-72
2022/06/29 00:57:39;;;;;;;31.63;28.73;;;;;;;19.88;nan;99357.16;2091096;28;20433;-71
2022/06/29 00:58:40;;;;;;;30.47;27.80;;;;;;;19.87;nan;99356.38;2091387;28;20449;-72
2022/06/29 00:59:50;;;;;;;30.40;27.60;;;;;;;19.87;nan;99353.66;2098658;28;20839;-72
2022/06/29 01:00:51;;;;;;;30.90;28.30;;;;;;;19.84;nan;99348.19;2097875;28;20922;-72
2022/06/29 01:01:52;;;;;;;31.50;28.60;;;;;;;19.84;nan;99356.31;2090679;28;20869;-72
2022/06/29 01:02:53;;;;;;;31.37;28.47;;;;;;;19.82;nan;99350.47;2082183;28;20226;-72
2022/06/29 01:03:55;;;;;;;30.70;27.83;;;;;;;19.81;nan;99349.69;2090454;28;20476;-73
2022/06/29 01:04:56;;;;;;;30.70;27.90;;;;;;;19.80;nan;99355.41;2098574;28;20198;-72
2022/06/29 01:05:57;;;;;;;30.70;28.00;;;;;;;19.81;nan;99367.81;2098156;28;20907;-72
2022/06/29 01:06:58;;;;;;;30.03;27.33;;;;;;;19.80;nan;99355.41;2091185;28;20614;-72
2022/06/29 01:08:01;;;;;;;31.27;28.43;;;;;;;19.80;nan;99367.03;2098648;28;20849;-71
2022/06/29 01:09:04;;;;;;;31.23;28.20;;;;;;;19.79;nan;99364.69;2090256;28;20265;-72
2022/06/29 01:10:09;;;;;;;30.83;27.77;;;;;;;19.79;nan;99364.69;2082370;28;20438;-72
2022/06/29 01:11:10;;;;;;;29.73;26.53;;;;;;;19.85;nan;99357.88;2090652;28;20418;-72
2022/06/29 01:12:14;;;;;;;27.30;24.60;;;;;;;19.85;nan;99355.16;2091048;28;20513;-71
2022/06/29 01:13:16;;;;;;;27.77;25.37;;;;;;;19.81;nan;99349.69;2091233;28;20191;-72
2022/06/29 01:14:18;;;;;;;24.73;22.67;;;;;;;19.90;nan;99338.66;2098195;28;20437;-72
2022/06/29 01:15:19;;;;;;;23.83;22.03;;;;;;;19.91;nan;99334.81;2098791;28;20423;-72
2022/06/29 01:16:21;;;;;;;23.37;21.37;;;;;;;19.93;nan;99329.81;2090541;28;20499;-72
2022/06/29 01:17:22;;;;;;;24.53;22.10;;;;;;;20.00;nan;99321.88;2090471;28;20425;-72
2022/06/29 01:18:24;;;;;;;24.73;22.83;;;;;;;20.00;nan;99319.16;2091160;28;20435;-72
2022/06/29 01:19:24;;;;;;;24.90;22.60;;;;;;;20.00;nan;99319.94;2098536;28;20443;-72
2022/06/29 01:20:27;;;;;;;25.47;23.27;;;;;;;19.98;nan;99307.88;2098612;28;20435;-72
2022/06/29 01:21:29;;;;;;;24.80;22.43;;;;;;;19.95;nan;99308.59;2090469;28;20254;-71
2022/06/29 01:22:32;;;;;;;25.90;23.30;;;;;;;19.98;nan;99316.00;2090256;28;20973;-72
2022/06/29 01:23:32;;;;;;;25.17;22.97;;;;;;;19.94;nan;99307.03;2090314;28;20441;-71
2022/06/29 01:24:34;;;;;;;27.90;25.03;;;;;;;19.94;nan;99305.09;2090973;28;20911;-72
2022/06/29 01:25:35;;;;;;;26.10;23.93;;;;;;;19.96;nan;99308.22;2090772;28;20210;-72
2022/06/29 01:26:36;;;;;;;25.87;23.27;;;;;;;19.92;nan;99306.59;2090993;28;20425;-72
2022/06/29 01:27:37;;;;;;;26.27;24.00;;;;;;;19.94;nan;99307.03;2090891;28;20198;-72
2022/06/29 01:28:43;;;;;;;27.63;25.23;;;;;;;19.93;nan;99302.75;2090891;28;20421;-72
2022/06/29 01:29:44;;;;;;;26.07;23.93;;;;;;;19.93;nan;99305.44;2090916;28;20514;-72
2022/06/29 01:30:46;;;;;;;25.27;23.17;;;;;;;19.91;nan;99303.09;2090846;28;20479;-72
2022/06/29 01:31:47;;;;;;;26.70;24.10;;;;;;;19.91;nan;99296.91;2091026;28;20216;-72
2022/06/29 01:32:48;;;;;;;25.07;22.77;;;;;;;19.91;nan;99302.31;2089656;28;20471;-72
2022/06/29 01:33:49;;;;;;;24.83;22.53;;;;;;;19.86;nan;99289.81;2089763;28;20670;-72
2022/06/29 01:34:52;;;;;;;24.53;22.50;;;;;;;19.86;nan;99289.81;2098143;28;20906;-72
2022/06/29 01:35:54;;;;;;;25.10;22.93;;;;;;;19.86;nan;99289.03;2097858;28;20195;-72
2022/06/29 01:36:56;;;;;;;25.33;22.87;;;;;;;19.82;nan;99285.47;2098651;28;20449;-72
2022/06/29 01:37:59;;;;;;;24.90;22.63;;;;;;;19.83;nan;99290.53;2098206;28;20467;-72
2022/06/29 01:39:01;;;;;;;25.20;22.77;;;;;;;19.82;nan;99288.19;2090785;28;20425;-72
2022/06/29 01:40:02;;;;;;;24.13;22.07;;;;;;;19.83;nan;99287.03;2091010;28;20453;-71
2022/06/29 01:41:04;;;;;;;24.43;22.53;;;;;;;19.82;nan;99286.25;2090755;28;20426;-72
2022/06/29 01:42:06;;;;;;;25.93;23.33;;;;;;;19.83;nan;99284.34;2098334;28;20444;-72
2022/06/29 01:43:10;;;;;;;27.50;22.07;;;;;;;19.81;nan;99281.97;2098507;28;20487;-72
2022/06/29 01:44:11;;;;;;;25.20;22.87;;;;;;;19.82;nan;99286.25;2090971;28;20436;-72
2022/06/29 01:45:13;;;;;;;25.73;23.43;;;;;;;19.83;nan;99278.91;2098264;28;20466;-72
2022/06/29 01:46:14;;;;;;;25.17;23.00;;;;;;;19.84;nan;99283.19;2098283;28;20566;-71
2022/06/29 01:47:16;;;;;;;24.60;22.43;;;;;;;19.85;nan;99284.75;2098228;28;20470;-71
2022/06/29 01:48:17;;;;;;;24.57;22.37;;;;;;;19.85;nan;99282.06;2098578;28;20201;-71
2022/06/29 01:49:21;;;;;;;24.17;22.17;;;;;;;19.81;nan;99287.41;2090969;28;20504;-72
2022/06/29 01:50:23;;;;;;;23.77;21.77;;;;;;;19.81;nan;99287.41;2090896;28;20202;-72
2022/06/29 01:51:27;;;;;;;25.00;22.63;;;;;;;19.86;nan;99280.91;2090360;28;20460;-72
2022/06/29 01:52:27;;;;;;;24.80;22.80;;;;;;;19.86;nan;99283.63;2090791;28;20516;-71
2022/06/29 01:53:31;;;;;;;24.73;22.53;;;;;;;19.86;nan;99283.63;2090673;28;20433;-72
2022/06/29 01:54:31;;;;;;;24.67;22.40;;;;;;;19.91;nan;99286.84;2090891;28;20183;-72
2022/06/29 01:55:35;;;;;;;24.77;22.40;;;;;;;19.96;nan;99285.78;2090647;28;20425;-71
2022/06/29 01:56:37;;;;;;;25.33;23.17;;;;;;;19.95;nan;99278.78;2090612;28;20215;-72
2022/06/29 01:57:38;;;;;;;25.33;22.80;;;;;;;19.94;nan;99279.94;2090662;28;20464;-72
2022/06/29 01:58:39;;;;;;;24.73;22.53;;;;;;;19.93;nan;99289.19;2090873;28;20440;-72
2022/06/29 01:59:41;;;;;;;24.13;22.17;;;;;;;19.91;nan;99288.78;2090826;28;20528;-72
2022/06/29 02:00:43;;;;;;;24.93;22.93;;;;;;;19.90;nan;99290.69;2090619;28;20202;-72
2022/06/29 02:01:45;;;;;;;25.43;23.33;;;;;;;19.94;nan;99301.59;2098192;28;20428;-72
2022/06/29 02:02:47;;;;;;;24.80;22.73;;;;;;;19.92;nan;99293.06;2098141;28;20927;-72
2022/06/29 02:03:51;;;;;;;25.07;23.07;;;;;;;19.94;nan;99298.91;2090801;28;20789;-72
2022/06/29 02:04:51;;;;;;;24.70;22.57;;;;;;;19.96;nan;99300.09;2098180;28;20448;-71
2022/06/29 02:05:53;;;;;;;25.70;23.13;;;;;;;19.96;nan;99299.31;2097649;28;20554;-71
2022/06/29 02:06:54;;;;;;;24.70;22.50;;;;;;;19.97;nan;99298.19;2089951;28;20219;-72
2022/06/29 02:07:55;;;;;;;24.80;22.63;;;;;;;20.03;nan;99299.50;2081317;28;20959;-72
2022/06/29 02:08:57;;;;;;;25.13;22.93;;;;;;;20.04;nan;99301.84;2090006;28;20586;-72
2022/06/29 02:09:59;;;;;;;25.30;23.03;;;;;;;20.04;nan;99303.75;2098155;28;20478;-71
2022/06/29 02:11:01;;;;;;;25.07;22.93;;;;;;;20.05;nan;99302.63;2098164;28;20486;-72
2022/06/29 02:12:05;;;;;;;24.90;22.60;;;;;;;20.07;nan;99294.13;2098489;28;20444;-72
2022/06/29 02:13:05;;;;;;;23.77;21.73;;;;;;;20.08;nan;99296.53;2098128;28;20788;-72
2022/06/29 02:14:07;;;;;;;24.27;22.17;;;;;;;20.04;nan;99291.00;2090769;28;20548;-72
2022/06/29 02:15:08;;;;;;;24.30;22.00;;;;;;;20.08;nan;99284.91;2098133;28;20689;-72
2022/06/29 02:16:10;;;;;;;25.13;22.50;;;;;;;20.18;nan;99279.72;2098186;28;20997;-72
2022/06/29 02:17:11;;;;;;;23.90;22.00;;;;;;;20.28;nan;99267.53;2097719;28;20480;-72
2022/06/29 02:18:13;;;;;;;24.07;21.70;;;;;;;20.27;nan;99261.31;2098196;28;20947;-72
2022/06/29 02:19:14;;;;;;;23.70;21.93;;;;;;;20.30;nan;99263.31;2090546;28;20429;-72
2022/06/29 02:20:18;;;;;;;24.13;22.13;;;;;;;20.22;nan;99253.47;2090632;28;20453;-72
2022/06/29 02:21:19;;;;;;;24.63;22.63;;;;;;;20.15;nan;99253.31;2090111;28;20230;-71
2022/06/29 02:22:21;;;;;;;24.63;22.50;;;;;;;20.12;nan;99254.03;2090528;28;20433;-72
2022/06/29 02:23:23;;;;;;;23.83;21.73;;;;;;;20.07;nan;99256.22;2090699;28;20183;-72
2022/06/29 02:24:27;;;;;;;25.03;22.47;;;;;;;20.05;nan;99253.88;2090171;28;20529;-71
2022/06/29 02:25:27;;;;;;;27.60;23.03;;;;;;;20.07;nan;99256.22;2089847;28;20985;-72
2022/06/29 02:26:29;;;;;;;25.27;22.97;;;;;;;20.08;nan;99258.59;2090189;28;20591;-72
2022/06/29 02:27:30;;;;;;;24.90;22.77;;;;;;;20.09;nan;99257.44;2081596;28;20540;-72
2022/06/29 02:28:31;;;;;;;24.23;22.07;;;;;;;20.07;nan;99254.31;2081557;28;20504;-72
2022/06/29 02:29:32;;;;;;;25.37;22.93;;;;;;;20.07;nan;99261.63;2090094;28;20653;-71
2022/06/29 02:34:44;;;;;;;25.70;23.27;;;;;;;20.21;nan;99262.72;2090465;28;20497;-71
2022/06/29 02:35:45;;;;;;;25.80;23.50;;;;;;;20.15;nan;99263.34;2090457;28;20799;-72
2022/06/29 02:36:46;;;;;;;24.57;22.57;;;;;;;20.06;nan;99260.84;2097687;28;20436;-72
2022/06/29 02:37:49;;;;;;;24.77;22.77;;;;;;;20.03;nan;99261.56;2098089;28;20654;-72
2022/06/29 02:38:52;;;;;;;26.20;23.83;;;;;;;20.00;nan;99273.13;2090480;28;20401;-72
2022/06/29 02:39:54;;;;;;;25.70;23.43;;;;;;;19.98;nan;99270.78;2090394;28;20429;-71
2022/06/29 02:40:56;;;;;;;24.33;22.17;;;;;;;19.98;nan;99264.53;2098006;28;20444;-72
2022/06/29 02:41:57;;;;;;;24.43;22.27;;;;;;;20.03;nan;99259.63;2097970;28;20452;-71
2022/06/29 02:42:58;;;;;;;25.83;23.10;;;;;;;19.99;nan;99260.72;2089806;28;20418;-72
2022/06/29 02:44:00;;;;;;;25.67;23.17;;;;;;;20.02;nan;99255.38;2090396;28;20187;-72
2022/06/29 02:45:03;;;;;;;25.33;22.90;;;;;;;20.02;nan;99263.50;2090646;28;20846;-71
2022/06/29 02:46:04;;;;;;;26.33;23.93;;;;;;;19.99;nan;99269.63;2093051;28;20460;-72
2022/06/29 02:47:07;;;;;;;26.17;23.77;;;;;;;20.01;nan;99272.75;2101027;28;20471;-72
2022/06/29 02:48:08;;;;;;;26.80;24.30;;;;;;;20.06;nan;99266.25;2100552;28;20225;-72
2022/06/29 02:49:10;;;;;;;27.00;24.30;;;;;;;20.01;nan;99269.25;2092775;28;20433;-72
2022/06/29 02:50:11;;;;;;;25.73;23.43;;;;;;;20.02;nan;99271.63;2093131;28;20472;-71
2022/06/29 02:51:12;;;;;;;26.50;24.07;;;;;;;20.00;nan;99279.31;2092767;28;20445;-72
2022/06/29 02:52:13;;;;;;;27.80;24.97;;;;;;;19.98;nan;99272.66;2100977;28;20289;-71
2022/06/29 02:53:15;;;;;;;28.10;24.30;;;;;;;19.95;nan;99271.47;2100815;28;20423;-71
2022/06/29 02:54:16;;;;;;;25.27;23.07;;;;;;;19.93;nan;99270.25;2093094;28;20191;-72
2022/06/29 02:55:24;;;;;;;25.90;23.40;;;;;;;19.91;nan;99264.41;2093338;28;20516;-71
2022/06/29 02:56:25;;;;;;;26.10;23.80;;;;;;;19.91;nan;99264.41;2100689;28;20566;-72
2022/06/29 02:57:26;;;;;;;28.60;24.73;;;;;;;19.96;nan;99262.19;2092663;28;20851;-72
2022/06/29 02:58:28;;;;;;;27.40;25.00;;;;;;;20.01;nan;99259.22;2084114;28;20446;-72
2022/06/29 02:59:28;;;;;;;26.30;23.90;;;;;;;20.09;nan;99265.56;2084247;28;20692;-72
2022/06/29 03:00:31;;;;;;;26.13;23.77;;;;;;;20.03;nan;99275.09;2092470;28;20803;-71
2022/06/29 03:01:32;;;;;;;26.73;24.33;;;;;;;19.99;nan;99266.13;2093337;28;20195;-72
2022/06/29 03:02:34;;;;;;;27.10;24.50;;;;;;;19.95;nan;99266.03;2093177;28;20528;-72
2022/06/29 03:03:35;;;;;;;27.33;24.93;;;;;;;19.97;nan;99269.16;2093088;28;20186;-72
2022/06/29 03:04:37;;;;;;;27.40;24.87;;;;;;;20.04;nan;99257.72;2093106;28;20516;-71
2022/06/29 03:05:37;;;;;;;28.17;25.23;;;;;;;20.02;nan;99266.19;2092994;28;20278;-72
2022/06/29 03:06:39;;;;;;;26.87;24.43;;;;;;;20.04;nan;99263.13;2092791;28;20981;-72
2022/06/29 03:07:40;;;;;;;29.43;25.33;;;;;;;20.03;nan;99264.28;2092393;28;20191;-72
2022/06/29 03:08:42;;;;;;;28.60;25.37;;;;;;;20.08;nan;99261.31;2092398;28;20442;-72
2022/06/29 03:09:43;;;;;;;29.23;26.30;;;;;;;20.13;nan;99258.28;2100894;28;20435;-72
2022/06/29 03:10:46;;;;;;;28.30;25.60;;;;;;;20.09;nan;99251.25;2093037;28;20457;-71
2022/06/29 03:11:47;;;;;;;28.67;25.67;;;;;;;20.11;nan;99260.59;2100870;28;20210;-72
2022/06/29 03:12:48;;;;;;;29.80;27.00;;;;;;;20.05;nan;99264.69;2100733;28;20424;-72
2022/06/29 03:13:49;;;;;;;29.20;26.23;;;;;;;20.06;nan;99263.56;2092379;28;20227;-71
2022/06/29 03:14:51;;;;;;;32.17;26.27;;;;;;;20.06;nan;99263.56;2092442;28;20483;-72
2022/06/29 03:15:54;;;;;;;29.03;26.43;;;;;;;20.04;nan;99263.91;2093078;28;20425;-72
2022/06/29 03:16:56;;;;;;;28.83;25.87;;;;;;;20.20;nan;99261.16;2092562;28;20448;-72
2022/06/29 03:17:57;;;;;;;29.40;26.80;;;;;;;20.28;nan;99267.53;2092651;28;20448;-72
2022/06/29 03:18:59;;;;;;;30.07;27.27;;;;;;;20.16;nan;99265.72;2092995;28;20465;-71
2022/06/29 03:20:01;;;;;;;34.90;26.77;;;;;;;20.12;nan;99259.44;2092372;28;20206;-72
2022/06/29 03:21:03;;;;;;;29.90;27.00;;;;;;;20.03;nan;99253.44;2092196;28;20469;-72
2022/06/29 03:22:05;;;;;;;30.20;27.17;;;;;;;19.99;nan;99249.88;2092559;28;20405;-72
2022/06/29 03:23:07;;;;;;;30.13;27.03;;;;;;;19.97;nan;99262.97;2092986;28;20529;-72
2022/06/29 03:24:08;;;;;;;29.73;26.73;;;;;;;19.94;nan;99259.06;2093066;28;20437;-71
2022/06/29 03:25:09;;;;;;;29.67;26.70;;;;;;;19.95;nan;99267.97;2100649;28;20440;-72
2022/06/29 03:26:11;;;;;;;31.07;28.17;;;;;;;20.02;nan;99260.00;2100576;28;20214;-72
2022/06/29 03:27:13;;;;;;;31.37;28.37;;;;;;;20.15;nan;99264.13;2093077;28;20477;-72
2022/06/29 03:28:15;;;;;;;29.97;27.17;;;;;;;20.24;nan;99262.03;2093169;28;20483;-71
2022/06/29 03:29:18;;;;;;;30.07;27.17;;;;;;;20.17;nan;99256.47;2092976;28;20425;-71
2022/06/29 03:30:19;;;;;;;30.33;27.53;;;;;;;20.16;nan;99264.94;2092963;28;20433;-72
2022/06/29 03:31:21;;;;;;;31.20;27.87;;;;;;;20.12;nan;99259.44;2092959;28;20524;-71
2022/06/29 03:32:21;;;;;;;30.50;27.80;;;;;;;20.09;nan;99259.38;2100587;28;20623;-71
2022/06/29 03:33:23;;;;;;;30.50;27.47;;;;;;;20.19;nan;99253.41;2092253;28;20437;-72
2022/06/29 03:34:25;;;;;;;30.07;27.33;;;;;;;20.17;nan;99251.03;2083994;28;20687;-71
2022/06/29 03:35:28;;;;;;;30.47;27.60;;;;;;;20.08;nan;99247.75;2092375;28;20430;-72
2022/06/29 03:36:32;;;;;;;31.57;28.50;;;;;;;20.09;nan;99238.50;2100293;28;20453;-72
2022/06/29 03:37:33;;;;;;;30.87;27.90;;;;;;;20.21;nan;99237.56;2100087;28;20804;-72
2022/06/29 03:38:35;;;;;;;31.70;28.60;;;;;;;20.25;nan;99241.94;2100856;28;20510;-71
2022/06/29 03:39:35;;;;;;;31.97;29.00;;;;;;;20.24;nan;99234.94;2100583;28;20202;-71
2022/06/29 03:40:37;;;;;;;32.80;29.23;;;;;;;20.21;nan;99234.84;2100531;28;20527;-71
2022/06/29 03:41:40;;;;;;;32.47;29.20;;;;;;;20.24;nan;99234.94;2100517;28;20624;-71
2022/06/29 03:42:45;;;;;;;32.03;28.73;;;;;;;20.19;nan;99234.44;2092933;28;20512;-71
2022/06/29 03:43:45;;;;;;;33.03;29.70;;;;;;;20.10;nan;99223.03;2092938;28;20421;-74
2022/06/29 03:44:47;;;;;;;31.70;28.60;;;;;;;20.03;nan;99219.00;2092945;28;20989;-72
2022/06/29 03:45:48;;;;;;;32.43;29.10;;;;;;;20.01;nan;99224.00;2093119;28;20260;-72
2022/06/29 03:46:49;;;;;;;32.53;29.27;;;;;;;19.96;nan;99228.91;2092156;28;20469;-72
2022/06/29 03:47:50;;;;;;;33.70;30.40;;;;;;;20.04;nan;99225.22;2083952;28;20223;-72
2022/06/29 03:48:54;;;;;;;33.10;29.63;;;;;;;19.99;nan;99223.59;2092335;28;20421;-72
2022/06/29 03:49:55;;;;;;;33.30;30.17;;;;;;;20.01;nan;99226.72;2092867;28;20191;-72
2022/06/29 03:50:57;;;;;;;34.03;30.60;;;;;;;20.05;nan;99224.06;2092379;28;20443;-72
2022/06/29 03:51:58;;;;;;;33.77;30.30;;;;;;;20.07;nan;99224.53;2092936;28;20229;-72
2022/06/29 03:52:59;;;;;;;35.13;30.57;;;;;;;20.04;nan;99222.50;2092134;28;20449;-72
2022/06/29 03:54:01;;;;;;;33.60;30.27;;;;;;;19.99;nan;99233.63;2092328;28;20429;-72
2022/06/29 03:55:04;;;;;;;33.90;30.60;;;;;;;19.95;nan;99235.47;2093085;28;20528;-72
2022/06/29 03:56:06;;;;;;;33.47;30.07;;;;;;;19.89;nan;99237.66;2092855;28;20445;-72
2022/06/29 03:57:09;;;;;;;32.30;29.33;;;;;;;19.88;nan;99238.78;2091182;28;20444;-72
2022/06/29 03:58:11;;;;;;;34.63;31.10;;;;;;;19.84;nan;99237.94;2091554;28;20761;-72
2022/06/29 03:59:11;;;;;;;35.10;31.33;;;;;;;19.82;nan;99242.16;2091544;28;20494;-72
2022/06/29 04:00:14;;;;;;;35.13;31.53;;;;;;;19.81;nan;99244.06;2091526;28;20433;-72
2022/06/29 04:01:14;;;;;;;35.10;31.50;;;;;;;19.79;nan;99240.13;2091666;28;20187;-72
2022/06/29 04:02:16;;;;;;;34.33;31.00;;;;;;;19.77;nan;99233.16;2091683;28;20437;-72
2022/06/29 04:03:17;;;;;;;36.33;32.27;;;;;;;19.75;nan;99232.72;2091500;28;20194;-72
2022/06/29 04:04:20;;;;;;;35.40;31.80;;;;;;;19.75;nan;99229.22;2099064;28;20524;-72
2022/06/29 04:05:21;;;;;;;34.97;31.50;;;;;;;19.78;nan;99223.09;2099005;28;20439;-72
2022/06/29 04:06:23;;;;;;;36.43;32.93;;;;;;;19.76;nan;99230.78;2090925;28;20568;-72
2022/06/29 04:07:23;;;;;;;34.97;31.47;;;;;;;19.77;nan;99237.78;2099377;28;20229;-72
2022/06/29 04:08:25;;;;;;;36.53;32.90;;;;;;;19.75;nan;99243.56;2099159;28;20815;-72
2022/06/29 04:09:26;;;;;;;34.50;31.20;;;;;;;19.73;nan;99242.34;2091704;28;20252;-72
2022/06/29 04:10:30;;;;;;;35.30;31.90;;;;;;;19.74;nan;99243.91;2091668;28;20442;-72
2022/06/29 04:11:49;;;;;;;34.40;31.10;;;;;;;19.75;nan;99240.84;2091372;28;20207;-72
2022/06/29 04:12:52;;;;;;;36.43;32.60;;;;;;;19.75;nan;99237.34;2091504;28;20779;-72
2022/06/29 04:13:53;;;;;;;35.43;31.77;;;;;;;19.78;nan;99233.94;2091435;28;20436;-73
2022/06/29 04:14:54;;;;;;;35.37;32.03;;;;;;;19.78;nan;99239.34;2090773;28;20451;-72
2022/06/29 04:15:55;;;;;;;35.50;32.30;;;;;;;19.77;nan;99238.56;2090788;28;20271;-72
2022/06/29 04:17:00;;;;;;;35.63;32.00;;;;;;;19.79;nan;99240.13;2098929;28;20437;-72
2022/06/29 04:18:02;;;;;;;35.03;31.40;;;;;;;19.80;nan;99241.69;2098519;28;20210;-72
2022/06/29 04:19:04;;;;;;;34.93;31.27;;;;;;;19.80;nan;99239.78;2091028;28;20978;-72
2022/06/29 04:20:06;;;;;;;35.30;31.53;;;;;;;19.84;nan;99248.00;2091534;28;20780;-73
2022/06/29 04:21:07;;;;;;;34.60;31.00;;;;;;;19.84;nan;99242.56;2090924;28;20235;-73
2022/06/29 04:22:08;;;;;;;34.03;30.73;;;;;;;19.84;nan;99237.16;2091602;28;20402;-72
2022/06/29 04:23:10;;;;;;;36.47;30.07;;;;;;;19.83;nan;99224.75;2099175;28;20233;-72
2022/06/29 04:24:12;;;;;;;35.20;31.83;;;;;;;19.86;nan;99229.47;2098886;28;20451;-72
2022/06/29 04:25:16;;;;;;;33.90;30.80;;;;;;;19.85;nan;99233.31;2099267;28;20444;-72
2022/06/29 04:26:18;;;;;;;33.63;30.40;;;;;;;19.83;nan;99233.66;2098709;28;20416;-72
2022/06/29 04:27:19;;;;;;;33.83;30.63;;;;;;;19.89;nan;99228.75;2091335;28;20456;-72
2022/06/29 04:28:22;;;;;;;34.27;30.93;;;;;;;19.88;nan;99232.59;2090645;28;20453;-72
2022/06/29 04:29:22;;;;;;;35.70;32.13;;;;;;;19.88;nan;99230.66;2090835;28;20217;-72
2022/06/29 04:30:24;;;;;;;33.60;30.40;;;;;;;19.86;nan;99230.25;2091579;28;20418;-72
2022/06/29 04:31:24;;;;;;;33.73;30.53;;;;;;;19.84;nan;99231.75;2091314;28;20695;-73
2022/06/29 04:32:30;;;;;;;34.57;31.27;;;;;;;19.85;nan;99222.47;2091440;28;20775;-72
2022/06/29 04:33:32;;;;;;;36.47;31.43;;;;;;;19.84;nan;99229.03;2099242;28;20204;-72
2022/06/29 04:34:33;;;;;;;34.57;31.27;;;;;;;19.86;nan;99224.81;2098868;28;20946;-72
2022/06/29 04:35:37;;;;;;;34.70;31.50;;;;;;;19.84;nan;99221.69;2090539;28;20297;-72
2022/06/29 04:36:39;;;;;;;35.23;31.07;;;;;;;19.84;nan;99223.63;2090366;28;20434;-72
2022/06/29 04:37:40;;;;;;;34.87;31.40;;;;;;;19.84;nan;99221.69;2091212;28;20475;-72
2022/06/29 04:38:41;;;;;;;38.77;31.80;;;;;;;19.82;nan;99223.19;2091440;28;20403;-72
2022/06/29 04:39:43;;;;;;;34.13;30.73;;;;;;;19.91;nan;99216.44;2091273;28;20219;-72
2022/06/29 04:40:46;;;;;;;33.87;30.77;;;;;;;19.94;nan;99223.06;2091241;28;20904;-72
2022/06/29 04:41:47;;;;;;;35.87;31.20;;;;;;;19.90;nan;99219.50;2091246;28;20429;-72
2022/06/29 04:42:49;;;;;;;33.80;30.87;;;;;;;19.89;nan;99223.31;2090535;28;20475;-72
2022/06/29 04:43:51;;;;;;;33.83;30.53;;;;;;;19.91;nan;99221.84;2090649;28;20206;-72
2022/06/29 04:44:53;;;;;;;34.33;30.90;;;;;;;19.93;nan;99224.22;2091220;28;20486;-72
2022/06/29 04:47:16;;;;;;;33.43;30.13;;;;;;;19.99;nan;99228.22;2091340;28;20398;-72
2022/06/29 04:48:16;;;;;;;34.17;30.97;;;;;;;20.05;nan;99224.06;2091115;28;20436;-72
2022/06/29 04:49:22;;;;;;;34.20;31.10;;;;;;;20.10;nan;99226.50;2091264;28;20517;-72
2022/06/29 04:50:23;;;;;;;34.97;31.53;;;;;;;20.21;nan;99224.78;2091296;28;20179;-72
2022/06/29 04:51:27;;;;;;;34.63;31.30;;;;;;;20.20;nan;99228.66;2090803;28;20959;-72
2022/06/29 04:52:27;;;;;;;35.50;32.10;;;;;;;20.22;nan;99228.28;2091156;28;20288;-72
2022/06/29 04:53:29;;;;;;;34.30;31.10;;;;;;;20.22;nan;99229.06;2098702;28;20456;-72
2022/06/29 04:54:31;;;;;;;35.27;31.93;;;;;;;20.22;nan;99226.38;2098768;28;20251;-72
2022/06/29 04:55:32;;;;;;;35.67;32.37;;;;;;;20.25;nan;99222.97;2091114;28;20453;-72
2022/06/29 04:56:35;;;;;;;36.70;32.97;;;;;;;20.28;nan;99230.38;2098919;28;20540;-72
2022/06/29 04:57:36;;;;;;;35.23;31.73;;;;;;;20.32;nan;99223.09;2098651;28;20874;-72